sensor_id;sensor_type;location;lat;lon;timestamp;P1;durP1;ratioP1;P2;durP2;ratioP2
27491;SDS011;14927;51.210;6.838;2022-10-31T00:02:06;14.10;;;6.45;;
27491;SDS011;14927;51.210;6.838;2022-10-31T00:04:51;17.90;;;6.07;;
27491;SDS011;14927;51.210;6.838;2022-10-31T00:07:35;14.65;;;6.45;;
27491;SDS011;14927;51.210;6.838;2022-10-31T00:10:20;16.52;;;5.32;;
27491;SDS011;14927;51.210;6.838;2022-10-31T00:13:05;15.02;;;6.22;;
27491;SDS011;14927;51.210;6.838;2022-10-31T00:15:50;10.77;;;6.75;;
27491;SDS011;14927;51.210;6.838;2022-10-31T00:18:41;10.73;;;5.80;;
27491;SDS011;14927;51.210;6.838;2022-10-31T00:21:26;14.38;;;6.78;;
27491;SDS011;14927;51.210;6.838;2022-10-31T00:24:11;15.77;;;5.78;;
27491;SDS011;14927;51.210;6.838;2022-10-31T00:26:56;11.00;;;5.63;;
27491;SDS011;14927;51.210;6.838;2022-10-31T00:29:40;13.02;;;5.40;;
27491;SDS011;14927;51.210;6.838;2022-10-31T00:32:28;15.38;;;6.20;;
27491;SDS011;14927;51.210;6.838;2022-10-31T00:35:13;11.50;;;5.68;;
27491;SDS011;14927;51.210;6.838;2022-10-31T00:37:58;12.50;;;5.78;;
27491;SDS011;14927;51.210;6.838;2022-10-31T00:40:43;12.35;;;6.13;;
27491;SDS011;14927;51.210;6.838;2022-10-31T00:43:28;12.40;;;5.95;;
27491;SDS011;14927;51.210;6.838;2022-10-31T00:46:13;11.52;;;6.03;;
27491;SDS011;14927;51.210;6.838;2022-10-31T00:48:57;15.60;;;5.57;;
27491;SDS011;14927;51.210;6.838;2022-10-31T00:51:42;13.57;;;6.18;;
27491;SDS011;14927;51.210;6.838;2022-10-31T00:54:26;12.73;;;5.82;;
27491;SDS011;14927;51.210;6.838;2022-10-31T00:57:11;10.55;;;5.80;;
27491;SDS011;14927;51.210;6.838;2022-10-31T00:59:55;15.70;;;5.95;;
27491;SDS011;14927;51.210;6.838;2022-10-31T01:02:40;14.80;;;5.95;;
27491;SDS011;14927;51.210;6.838;2022-10-31T01:05:25;13.02;;;5.90;;
27491;SDS011;14927;51.210;6.838;2022-10-31T01:08:09;16.65;;;6.50;;
27491;SDS011;14927;51.210;6.838;2022-10-31T01:10:58;14.45;;;6.00;;
27491;SDS011;14927;51.210;6.838;2022-10-31T01:13:49;10.93;;;6.05;;
27491;SDS011;14927;51.210;6.838;2022-10-31T01:16:35;13.02;;;5.80;;
27491;SDS011;14927;51.210;6.838;2022-10-31T01:19:19;11.27;;;6.40;;
27491;SDS011;14927;51.210;6.838;2022-10-31T01:22:04;12.40;;;6.10;;
27491;SDS011;14927;51.210;6.838;2022-10-31T01:24:49;17.15;;;5.85;;
27491;SDS011;14927;51.210;6.838;2022-10-31T01:27:33;11.40;;;5.60;;
27491;SDS011;14927;51.210;6.838;2022-10-31T01:30:18;13.02;;;6.15;;
27491;SDS011;14927;51.210;6.838;2022-10-31T01:33:03;14.70;;;6.35;;
27491;SDS011;14927;51.210;6.838;2022-10-31T01:35:47;11.45;;;6.03;;
27491;SDS011;14927;51.210;6.838;2022-10-31T01:38:32;13.30;;;5.55;;
27491;SDS011;14927;51.210;6.838;2022-10-31T01:41:21;8.52;;;5.70;;
27491;SDS011;14927;51.210;6.838;2022-10-31T01:47:11;11.25;;;5.60;;
27491;SDS011;14927;51.210;6.838;2022-10-31T01:50:03;11.30;;;5.90;;
27491;SDS011;14927;51.210;6.838;2022-10-31T01:52:54;19.23;;;6.38;;
27491;SDS011;14927;51.210;6.838;2022-10-31T01:55:40;16.30;;;5.22;;
27491;SDS011;14927;51.210;6.838;2022-10-31T01:58:28;16.02;;;6.07;;
27491;SDS011;14927;51.210;6.838;2022-10-31T02:01:14;14.57;;;5.75;;
27491;SDS011;14927;51.210;6.838;2022-10-31T02:04:00;10.45;;;6.35;;
27491;SDS011;14927;51.210;6.838;2022-10-31T02:06:53;15.23;;;5.88;;
27491;SDS011;14927;51.210;6.838;2022-10-31T02:09:50;10.88;;;5.63;;
27491;SDS011;14927;51.210;6.838;2022-10-31T02:12:37;12.63;;;5.55;;
27491;SDS011;14927;51.210;6.838;2022-10-31T02:15:21;16.73;;;6.10;;
27491;SDS011;14927;51.210;6.838;2022-10-31T02:18:06;15.48;;;6.05;;
27491;SDS011;14927;51.210;6.838;2022-10-31T02:27:43;15.35;;;6.20;;
27491;SDS011;14927;51.210;6.838;2022-10-31T02:34:21;10.98;;;5.68;;
27491;SDS011;14927;51.210;6.838;2022-10-31T02:46:34;15.15;;;6.15;;
27491;SDS011;14927;51.210;6.838;2022-10-31T02:52:30;9.90;;;5.97;;
27491;SDS011;14927;51.210;6.838;2022-10-31T02:58:11;11.70;;;6.30;;
27491;SDS011;14927;51.210;6.838;2022-10-31T03:07:34;13.20;;;6.38;;
27491;SDS011;14927;51.210;6.838;2022-10-31T03:10:35;8.50;;;5.28;;
27491;SDS011;14927;51.210;6.838;2022-10-31T03:16:28;15.00;;;6.10;;
27491;SDS011;14927;51.210;6.838;2022-10-31T03:19:29;12.30;;;5.72;;
27491;SDS011;14927;51.210;6.838;2022-10-31T03:22:20;13.57;;;6.45;;
27491;SDS011;14927;51.210;6.838;2022-10-31T03:25:08;18.83;;;6.60;;
27491;SDS011;14927;51.210;6.838;2022-10-31T03:27:53;15.85;;;6.50;;
27491;SDS011;14927;51.210;6.838;2022-10-31T03:30:41;12.50;;;6.10;;
27491;SDS011;14927;51.210;6.838;2022-10-31T03:33:28;14.02;;;5.80;;
27491;SDS011;14927;51.210;6.838;2022-10-31T03:36:17;11.32;;;5.35;;
27491;SDS011;14927;51.210;6.838;2022-10-31T03:39:03;13.18;;;5.82;;
27491;SDS011;14927;51.210;6.838;2022-10-31T03:41:54;15.02;;;6.22;;
27491;SDS011;14927;51.210;6.838;2022-10-31T03:44:48;16.88;;;6.47;;
27491;SDS011;14927;51.210;6.838;2022-10-31T03:48:00;12.65;;;6.13;;
27491;SDS011;14927;51.210;6.838;2022-10-31T03:53:51;13.82;;;6.38;;
27491;SDS011;14927;51.210;6.838;2022-10-31T03:56:47;12.23;;;5.60;;
27491;SDS011;14927;51.210;6.838;2022-10-31T03:59:36;13.95;;;5.55;;
27491;SDS011;14927;51.210;6.838;2022-10-31T04:02:28;12.00;;;5.90;;
27491;SDS011;14927;51.210;6.838;2022-10-31T04:05:15;12.20;;;6.15;;
27491;SDS011;14927;51.210;6.838;2022-10-31T04:08:02;11.75;;;6.57;;
27491;SDS011;14927;51.210;6.838;2022-10-31T04:10:52;14.13;;;6.07;;
27491;SDS011;14927;51.210;6.838;2022-10-31T04:13:38;16.55;;;6.75;;
27491;SDS011;14927;51.210;6.838;2022-10-31T04:16:24;11.18;;;6.30;;
27491;SDS011;14927;51.210;6.838;2022-10-31T04:19:12;17.27;;;6.63;;
27491;SDS011;14927;51.210;6.838;2022-10-31T04:21:58;10.52;;;6.13;;
27491;SDS011;14927;51.210;6.838;2022-10-31T04:24:43;15.25;;;5.93;;
27491;SDS011;14927;51.210;6.838;2022-10-31T04:27:27;12.80;;;6.30;;
27491;SDS011;14927;51.210;6.838;2022-10-31T04:30:12;16.13;;;7.22;;
27491;SDS011;14927;51.210;6.838;2022-10-31T04:32:56;15.25;;;6.63;;
27491;SDS011;14927;51.210;6.838;2022-10-31T04:35:41;15.40;;;6.72;;
27491;SDS011;14927;51.210;6.838;2022-10-31T04:38:26;15.27;;;6.07;;
27491;SDS011;14927;51.210;6.838;2022-10-31T04:41:10;14.18;;;6.57;;
27491;SDS011;14927;51.210;6.838;2022-10-31T04:43:55;14.07;;;6.25;;
27491;SDS011;14927;51.210;6.838;2022-10-31T04:46:39;12.18;;;5.93;;
27491;SDS011;14927;51.210;6.838;2022-10-31T04:49:24;14.32;;;6.55;;
27491;SDS011;14927;51.210;6.838;2022-10-31T04:52:09;14.48;;;6.10;;
27491;SDS011;14927;51.210;6.838;2022-10-31T04:54:53;17.45;;;6.70;;
27491;SDS011;14927;51.210;6.838;2022-10-31T04:57:45;13.27;;;6.35;;
27491;SDS011;14927;51.210;6.838;2022-10-31T05:00:34;14.55;;;6.68;;
27491;SDS011;14927;51.210;6.838;2022-10-31T05:03:18;17.90;;;6.65;;
27491;SDS011;14927;51.210;6.838;2022-10-31T05:06:03;20.20;;;6.28;;
27491;SDS011;14927;51.210;6.838;2022-10-31T05:08:48;12.05;;;6.28;;
27491;SDS011;14927;51.210;6.838;2022-10-31T05:11:32;12.75;;;6.75;;
27491;SDS011;14927;51.210;6.838;2022-10-31T05:14:17;16.67;;;6.30;;
27491;SDS011;14927;51.210;6.838;2022-10-31T05:17:02;15.68;;;6.32;;
27491;SDS011;14927;51.210;6.838;2022-10-31T05:19:46;15.57;;;6.82;;
27491;SDS011;14927;51.210;6.838;2022-10-31T05:22:31;14.50;;;6.45;;
27491;SDS011;14927;51.210;6.838;2022-10-31T05:25:15;15.15;;;6.97;;
27491;SDS011;14927;51.210;6.838;2022-10-31T05:28:02;14.55;;;6.97;;
27491;SDS011;14927;51.210;6.838;2022-10-31T05:30:47;13.43;;;6.53;;
27491;SDS011;14927;51.210;6.838;2022-10-31T05:33:33;15.77;;;7.38;;
27491;SDS011;14927;51.210;6.838;2022-10-31T05:36:17;13.07;;;6.88;;
27491;SDS011;14927;51.210;6.838;2022-10-31T05:39:02;15.55;;;6.85;;
27491;SDS011;14927;51.210;6.838;2022-10-31T05:41:47;14.30;;;6.95;;
27491;SDS011;14927;51.210;6.838;2022-10-31T05:44:32;12.98;;;6.68;;
27491;SDS011;14927;51.210;6.838;2022-10-31T05:47:17;16.05;;;6.85;;
27491;SDS011;14927;51.210;6.838;2022-10-31T05:50:01;12.25;;;6.60;;
27491;SDS011;14927;51.210;6.838;2022-10-31T05:52:46;12.75;;;7.25;;
27491;SDS011;14927;51.210;6.838;2022-10-31T05:55:31;10.85;;;6.90;;
27491;SDS011;14927;51.210;6.838;2022-10-31T05:58:16;13.15;;;6.88;;
27491;SDS011;14927;51.210;6.838;2022-10-31T06:01:01;20.33;;;6.90;;
27491;SDS011;14927;51.210;6.838;2022-10-31T06:03:45;12.30;;;6.88;;
27491;SDS011;14927;51.210;6.838;2022-10-31T06:06:30;16.30;;;6.70;;
27491;SDS011;14927;51.210;6.838;2022-10-31T06:09:14;11.52;;;6.68;;
27491;SDS011;14927;51.210;6.838;2022-10-31T06:11:59;16.83;;;7.80;;
27491;SDS011;14927;51.210;6.838;2022-10-31T06:14:44;17.55;;;7.63;;
27491;SDS011;14927;51.210;6.838;2022-10-31T06:17:29;15.40;;;7.03;;
27491;SDS011;14927;51.210;6.838;2022-10-31T06:20:13;17.38;;;6.45;;
27491;SDS011;14927;51.210;6.838;2022-10-31T06:22:58;15.07;;;6.63;;
27491;SDS011;14927;51.210;6.838;2022-10-31T06:25:43;11.85;;;6.45;;
27491;SDS011;14927;51.210;6.838;2022-10-31T06:28:32;15.47;;;7.23;;
27491;SDS011;14927;51.210;6.838;2022-10-31T06:31:17;14.57;;;7.55;;
27491;SDS011;14927;51.210;6.838;2022-10-31T06:34:01;12.57;;;7.18;;
27491;SDS011;14927;51.210;6.838;2022-10-31T06:36:46;15.98;;;7.70;;
27491;SDS011;14927;51.210;6.838;2022-10-31T06:39:31;13.65;;;7.18;;
27491;SDS011;14927;51.210;6.838;2022-10-31T06:42:16;17.17;;;7.45;;
27491;SDS011;14927;51.210;6.838;2022-10-31T06:45:00;16.50;;;7.35;;
27491;SDS011;14927;51.210;6.838;2022-10-31T06:47:50;13.88;;;7.20;;
27491;SDS011;14927;51.210;6.838;2022-10-31T06:50:36;13.50;;;7.97;;
27491;SDS011;14927;51.210;6.838;2022-10-31T06:53:21;15.85;;;6.75;;
27491;SDS011;14927;51.210;6.838;2022-10-31T06:56:06;16.30;;;7.65;;
27491;SDS011;14927;51.210;6.838;2022-10-31T06:58:50;10.32;;;6.07;;
27491;SDS011;14927;51.210;6.838;2022-10-31T07:01:35;13.30;;;6.50;;
27491;SDS011;14927;51.210;6.838;2022-10-31T07:04:20;14.23;;;7.20;;
27491;SDS011;14927;51.210;6.838;2022-10-31T07:07:05;14.32;;;7.57;;
27491;SDS011;14927;51.210;6.838;2022-10-31T07:09:49;14.90;;;7.53;;
27491;SDS011;14927;51.210;6.838;2022-10-31T07:12:34;14.02;;;7.38;;
27491;SDS011;14927;51.210;6.838;2022-10-31T07:15:19;16.17;;;7.78;;
27491;SDS011;14927;51.210;6.838;2022-10-31T07:18:04;18.08;;;8.13;;
27491;SDS011;14927;51.210;6.838;2022-10-31T07:20:51;16.20;;;7.97;;
27491;SDS011;14927;51.210;6.838;2022-10-31T07:23:36;14.63;;;7.35;;
27491;SDS011;14927;51.210;6.838;2022-10-31T07:26:21;16.60;;;7.40;;
27491;SDS011;14927;51.210;6.838;2022-10-31T07:29:05;14.73;;;7.30;;
27491;SDS011;14927;51.210;6.838;2022-10-31T07:31:50;17.90;;;7.45;;
27491;SDS011;14927;51.210;6.838;2022-10-31T07:34:35;15.90;;;7.20;;
27491;SDS011;14927;51.210;6.838;2022-10-31T07:37:19;15.70;;;8.18;;
27491;SDS011;14927;51.210;6.838;2022-10-31T07:40:05;18.50;;;8.65;;
27491;SDS011;14927;51.210;6.838;2022-10-31T07:42:53;19.50;;;7.88;;
27491;SDS011;14927;51.210;6.838;2022-10-31T07:45:37;17.88;;;8.13;;
27491;SDS011;14927;51.210;6.838;2022-10-31T07:48:22;16.00;;;7.63;;
27491;SDS011;14927;51.210;6.838;2022-10-31T07:51:06;20.52;;;8.63;;
27491;SDS011;14927;51.210;6.838;2022-10-31T07:53:51;19.17;;;7.53;;
27491;SDS011;14927;51.210;6.838;2022-10-31T07:56:36;15.75;;;8.45;;
27491;SDS011;14927;51.210;6.838;2022-10-31T07:59:20;16.45;;;8.27;;
27491;SDS011;14927;51.210;6.838;2022-10-31T08:02:05;13.98;;;7.72;;
27491;SDS011;14927;51.210;6.838;2022-10-31T08:04:51;16.98;;;8.40;;
27491;SDS011;14927;51.210;6.838;2022-10-31T08:07:36;19.63;;;8.65;;
27491;SDS011;14927;51.210;6.838;2022-10-31T08:10:21;15.00;;;8.18;;
27491;SDS011;14927;51.210;6.838;2022-10-31T08:13:07;13.25;;;8.23;;
27491;SDS011;14927;51.210;6.838;2022-10-31T08:15:54;20.45;;;9.60;;
27491;SDS011;14927;51.210;6.838;2022-10-31T08:18:39;18.48;;;8.68;;
27491;SDS011;14927;51.210;6.838;2022-10-31T08:21:24;20.25;;;9.90;;
27491;SDS011;14927;51.210;6.838;2022-10-31T08:24:09;18.85;;;9.07;;
27491;SDS011;14927;51.210;6.838;2022-10-31T08:26:54;22.95;;;9.25;;
27491;SDS011;14927;51.210;6.838;2022-10-31T08:29:38;19.35;;;9.00;;
27491;SDS011;14927;51.210;6.838;2022-10-31T08:32:23;19.05;;;10.10;;
27491;SDS011;14927;51.210;6.838;2022-10-31T08:35:08;19.55;;;9.60;;
27491;SDS011;14927;51.210;6.838;2022-10-31T08:37:53;17.80;;;9.32;;
27491;SDS011;14927;51.210;6.838;2022-10-31T08:40:39;17.10;;;9.02;;
27491;SDS011;14927;51.210;6.838;2022-10-31T08:43:23;21.20;;;10.45;;
27491;SDS011;14927;51.210;6.838;2022-10-31T08:46:08;19.63;;;10.35;;
27491;SDS011;14927;51.210;6.838;2022-10-31T08:48:52;15.20;;;8.93;;
27491;SDS011;14927;51.210;6.838;2022-10-31T08:51:37;19.33;;;10.13;;
27491;SDS011;14927;51.210;6.838;2022-10-31T08:54:22;20.10;;;11.23;;
27491;SDS011;14927;51.210;6.838;2022-10-31T08:57:06;19.52;;;10.55;;
27491;SDS011;14927;51.210;6.838;2022-10-31T08:59:51;22.17;;;10.57;;
27491;SDS011;14927;51.210;6.838;2022-10-31T09:02:35;18.42;;;9.68;;
27491;SDS011;14927;51.210;6.838;2022-10-31T09:05:21;19.38;;;9.95;;
27491;SDS011;14927;51.210;6.838;2022-10-31T09:08:06;19.73;;;10.23;;
27491;SDS011;14927;51.210;6.838;2022-10-31T09:10:52;16.95;;;9.70;;
27491;SDS011;14927;51.210;6.838;2022-10-31T09:13:40;17.70;;;9.07;;
27491;SDS011;14927;51.210;6.838;2022-10-31T09:16:25;22.08;;;9.38;;
27491;SDS011;14927;51.210;6.838;2022-10-31T09:19:09;23.25;;;9.93;;
27491;SDS011;14927;51.210;6.838;2022-10-31T09:21:54;23.85;;;10.10;;
27491;SDS011;14927;51.210;6.838;2022-10-31T09:24:38;21.00;;;10.35;;
27491;SDS011;14927;51.210;6.838;2022-10-31T09:27:23;19.45;;;9.13;;
27491;SDS011;14927;51.210;6.838;2022-10-31T09:30:08;22.77;;;10.13;;
27491;SDS011;14927;51.210;6.838;2022-10-31T09:32:57;23.05;;;10.10;;
27491;SDS011;14927;51.210;6.838;2022-10-31T09:35:43;16.92;;;9.90;;
27491;SDS011;14927;51.210;6.838;2022-10-31T09:38:28;25.92;;;10.13;;
27491;SDS011;14927;51.210;6.838;2022-10-31T09:44:51;19.52;;;10.20;;
27491;SDS011;14927;51.210;6.838;2022-10-31T09:49:03;20.27;;;9.30;;
27491;SDS011;14927;51.210;6.838;2022-10-31T09:52:13;23.50;;;9.32;;
27491;SDS011;14927;51.210;6.838;2022-10-31T09:58:24;15.82;;;8.82;;
27491;SDS011;14927;51.210;6.838;2022-10-31T10:01:33;26.55;;;9.85;;
27491;SDS011;14927;51.210;6.838;2022-10-31T10:07:52;18.15;;;9.50;;
27491;SDS011;14927;51.210;6.838;2022-10-31T10:11:04;22.73;;;10.68;;
27491;SDS011;14927;51.210;6.838;2022-10-31T10:18:17;18.95;;;9.30;;
27491;SDS011;14927;51.210;6.838;2022-10-31T10:21:44;21.40;;;9.23;;
27491;SDS011;14927;51.210;6.838;2022-10-31T10:28:02;25.45;;;9.00;;
27491;SDS011;14927;51.210;6.838;2022-10-31T10:31:27;27.10;;;8.95;;
27491;SDS011;14927;51.210;6.838;2022-10-31T10:34:23;26.45;;;9.88;;
27491;SDS011;14927;51.210;6.838;2022-10-31T10:37:30;21.10;;;9.00;;
27491;SDS011;14927;51.210;6.838;2022-10-31T10:40:20;22.25;;;9.43;;
27491;SDS011;14927;51.210;6.838;2022-10-31T10:46:19;17.77;;;8.95;;
27491;SDS011;14927;51.210;6.838;2022-10-31T10:49:48;19.58;;;8.07;;
27491;SDS011;14927;51.210;6.838;2022-10-31T10:52:50;17.77;;;7.63;;
27491;SDS011;14927;51.210;6.838;2022-10-31T10:59:20;18.55;;;7.97;;
27491;SDS011;14927;51.210;6.838;2022-10-31T11:02:25;18.98;;;8.55;;
27491;SDS011;14927;51.210;6.838;2022-10-31T11:08:23;20.95;;;8.52;;
27491;SDS011;14927;51.210;6.838;2022-10-31T11:11:25;20.33;;;8.63;;
27491;SDS011;14927;51.210;6.838;2022-10-31T11:14:15;20.92;;;7.65;;
27491;SDS011;14927;51.210;6.838;2022-10-31T11:17:09;17.95;;;7.78;;
27491;SDS011;14927;51.210;6.838;2022-10-31T11:23:03;18.60;;;7.57;;
27491;SDS011;14927;51.210;6.838;2022-10-31T11:26:04;20.58;;;8.23;;
27491;SDS011;14927;51.210;6.838;2022-10-31T11:28:56;19.55;;;7.13;;
27491;SDS011;14927;51.210;6.838;2022-10-31T11:31:43;15.75;;;7.50;;
27491;SDS011;14927;51.210;6.838;2022-10-31T11:34:33;20.83;;;7.68;;
27491;SDS011;14927;51.210;6.838;2022-10-31T11:37:25;17.58;;;8.02;;
27491;SDS011;14927;51.210;6.838;2022-10-31T11:40:14;15.15;;;7.68;;
27491;SDS011;14927;51.210;6.838;2022-10-31T11:43:12;20.73;;;7.53;;
27491;SDS011;14927;51.210;6.838;2022-10-31T11:46:08;16.83;;;7.95;;
27491;SDS011;14927;51.210;6.838;2022-10-31T11:48:55;15.23;;;6.82;;
27491;SDS011;14927;51.210;6.838;2022-10-31T11:51:40;16.77;;;6.65;;
27491;SDS011;14927;51.210;6.838;2022-10-31T11:54:32;13.88;;;7.57;;
27491;SDS011;14927;51.210;6.838;2022-10-31T11:57:32;18.92;;;7.15;;
27491;SDS011;14927;51.210;6.838;2022-10-31T12:00:33;15.05;;;6.78;;
27491;SDS011;14927;51.210;6.838;2022-10-31T12:06:08;10.52;;;5.32;;
27491;SDS011;14927;51.210;6.838;2022-10-31T12:09:02;14.05;;;5.90;;
27491;SDS011;14927;51.210;6.838;2022-10-31T12:18:17;11.10;;;4.38;;
27491;SDS011;14927;51.210;6.838;2022-10-31T12:38:12;9.38;;;4.03;;
27491;SDS011;14927;51.210;6.838;2022-10-31T12:41:52;7.40;;;3.28;;
27491;SDS011;14927;51.210;6.838;2022-10-31T12:48:24;9.38;;;3.70;;
27491;SDS011;14927;51.210;6.838;2022-10-31T12:51:40;10.63;;;3.90;;
27491;SDS011;14927;51.210;6.838;2022-10-31T12:54:44;11.65;;;3.38;;
27491;SDS011;14927;51.210;6.838;2022-10-31T12:57:48;15.45;;;5.18;;
27491;SDS011;14927;51.210;6.838;2022-10-31T13:00:38;8.90;;;3.75;;
27491;SDS011;14927;51.210;6.838;2022-10-31T13:06:35;10.00;;;4.00;;
27491;SDS011;14927;51.210;6.838;2022-10-31T13:09:33;13.27;;;3.85;;
27491;SDS011;14927;51.210;6.838;2022-10-31T13:12:39;10.13;;;3.63;;
27491;SDS011;14927;51.210;6.838;2022-10-31T13:15:27;10.40;;;4.53;;
27491;SDS011;14927;51.210;6.838;2022-10-31T13:18:30;7.18;;;3.28;;
27491;SDS011;14927;51.210;6.838;2022-10-31T13:21:38;8.35;;;3.30;;
27491;SDS011;14927;51.210;6.838;2022-10-31T13:24:57;12.88;;;3.35;;
27491;SDS011;14927;51.210;6.838;2022-10-31T13:28:08;7.15;;;2.97;;
27491;SDS011;14927;51.210;6.838;2022-10-31T13:31:10;8.60;;;3.67;;
27491;SDS011;14927;51.210;6.838;2022-10-31T13:34:03;10.82;;;3.53;;
27491;SDS011;14927;51.210;6.838;2022-10-31T13:43:37;11.40;;;3.35;;
27491;SDS011;14927;51.210;6.838;2022-10-31T13:46:55;11.48;;;3.05;;
27491;SDS011;14927;51.210;6.838;2022-10-31T13:49:41;10.60;;;3.30;;
27491;SDS011;14927;51.210;6.838;2022-10-31T13:52:25;15.02;;;4.05;;
27491;SDS011;14927;51.210;6.838;2022-10-31T13:58:25;7.35;;;3.30;;
27491;SDS011;14927;51.210;6.838;2022-10-31T14:01:13;11.73;;;3.33;;
27491;SDS011;14927;51.210;6.838;2022-10-31T14:04:07;12.35;;;3.85;;
27491;SDS011;14927;51.210;6.838;2022-10-31T14:07:12;8.32;;;3.22;;
27491;SDS011;14927;51.210;6.838;2022-10-31T14:10:07;9.55;;;3.20;;
27491;SDS011;14927;51.210;6.838;2022-10-31T14:16:26;9.05;;;3.15;;
27491;SDS011;14927;51.210;6.838;2022-10-31T14:19:14;9.43;;;3.17;;
27491;SDS011;14927;51.210;6.838;2022-10-31T14:22:02;10.20;;;3.60;;
27491;SDS011;14927;51.210;6.838;2022-10-31T14:24:46;12.65;;;3.85;;
27491;SDS011;14927;51.210;6.838;2022-10-31T14:27:32;9.48;;;3.70;;
27491;SDS011;14927;51.210;6.838;2022-10-31T14:30:29;20.08;;;4.88;;
27491;SDS011;14927;51.210;6.838;2022-10-31T14:33:18;7.93;;;2.92;;
27491;SDS011;14927;51.210;6.838;2022-10-31T14:36:06;9.57;;;3.40;;
27491;SDS011;14927;51.210;6.838;2022-10-31T14:51:36;7.78;;;2.97;;
27491;SDS011;14927;51.210;6.838;2022-10-31T14:57:23;7.90;;;2.95;;
27491;SDS011;14927;51.210;6.838;2022-10-31T15:00:16;12.65;;;3.53;;
27491;SDS011;14927;51.210;6.838;2022-10-31T15:03:16;11.38;;;3.28;;
27491;SDS011;14927;51.210;6.838;2022-10-31T15:06:05;9.70;;;3.10;;
27491;SDS011;14927;51.210;6.838;2022-10-31T15:08:56;6.55;;;3.38;;
27491;SDS011;14927;51.210;6.838;2022-10-31T15:11:41;13.88;;;3.70;;
27491;SDS011;14927;51.210;6.838;2022-10-31T15:14:26;7.80;;;3.05;;
27491;SDS011;14927;51.210;6.838;2022-10-31T15:17:14;10.48;;;3.17;;
27491;SDS011;14927;51.210;6.838;2022-10-31T15:20:00;6.45;;;2.90;;
27491;SDS011;14927;51.210;6.838;2022-10-31T15:22:45;11.88;;;3.78;;
27491;SDS011;14927;51.210;6.838;2022-10-31T15:25:32;6.10;;;2.80;;
27491;SDS011;14927;51.210;6.838;2022-10-31T15:28:22;9.70;;;2.80;;
27491;SDS011;14927;51.210;6.838;2022-10-31T15:36:49;11.85;;;3.05;;
27491;SDS011;14927;51.210;6.838;2022-10-31T15:39:33;9.63;;;3.40;;
27491;SDS011;14927;51.210;6.838;2022-10-31T15:45:16;8.05;;;2.85;;
27491;SDS011;14927;51.210;6.838;2022-10-31T15:48:21;7.35;;;2.70;;
27491;SDS011;14927;51.210;6.838;2022-10-31T15:51:08;6.30;;;2.92;;
27491;SDS011;14927;51.210;6.838;2022-10-31T15:53:53;9.02;;;3.08;;
27491;SDS011;14927;51.210;6.838;2022-10-31T15:56:39;10.32;;;3.10;;
27491;SDS011;14927;51.210;6.838;2022-10-31T15:59:28;13.68;;;3.30;;
27491;SDS011;14927;51.210;6.838;2022-10-31T16:02:14;8.77;;;3.28;;
27491;SDS011;14927;51.210;6.838;2022-10-31T16:05:14;9.63;;;3.05;;
27491;SDS011;14927;51.210;6.838;2022-10-31T16:08:02;13.05;;;3.63;;
27491;SDS011;14927;51.210;6.838;2022-10-31T16:10:47;12.98;;;3.00;;
27491;SDS011;14927;51.210;6.838;2022-10-31T16:13:34;9.00;;;2.83;;
27491;SDS011;14927;51.210;6.838;2022-10-31T16:16:26;8.07;;;2.35;;
27491;SDS011;14927;51.210;6.838;2022-10-31T16:19:16;9.40;;;3.00;;
27491;SDS011;14927;51.210;6.838;2022-10-31T16:22:11;8.00;;;2.75;;
27491;SDS011;14927;51.210;6.838;2022-10-31T16:27:53;7.38;;;2.97;;
27491;SDS011;14927;51.210;6.838;2022-10-31T16:30:47;9.05;;;2.97;;
27491;SDS011;14927;51.210;6.838;2022-10-31T16:33:36;14.35;;;4.03;;
27491;SDS011;14927;51.210;6.838;2022-10-31T16:36:38;9.73;;;3.25;;
27491;SDS011;14927;51.210;6.838;2022-10-31T16:39:24;10.65;;;2.97;;
27491;SDS011;14927;51.210;6.838;2022-10-31T16:42:08;10.23;;;3.38;;
27491;SDS011;14927;51.210;6.838;2022-10-31T16:44:54;20.10;;;3.65;;
27491;SDS011;14927;51.210;6.838;2022-10-31T16:47:38;13.77;;;3.22;;
27491;SDS011;14927;51.210;6.838;2022-10-31T16:50:24;8.07;;;3.03;;
27491;SDS011;14927;51.210;6.838;2022-10-31T16:53:10;10.10;;;3.63;;
27491;SDS011;14927;51.210;6.838;2022-10-31T16:55:57;10.45;;;3.33;;
27491;SDS011;14927;51.210;6.838;2022-10-31T16:58:43;13.73;;;3.70;;
27491;SDS011;14927;51.210;6.838;2022-10-31T17:01:28;10.90;;;3.80;;
27491;SDS011;14927;51.210;6.838;2022-10-31T17:04:14;8.88;;;3.70;;
27491;SDS011;14927;51.210;6.838;2022-10-31T17:06:59;12.68;;;4.38;;
27491;SDS011;14927;51.210;6.838;2022-10-31T17:09:44;14.88;;;3.75;;
27491;SDS011;14927;51.210;6.838;2022-10-31T17:12:28;11.70;;;3.30;;
27491;SDS011;14927;51.210;6.838;2022-10-31T17:15:17;10.57;;;3.47;;
27491;SDS011;14927;51.210;6.838;2022-10-31T17:18:09;12.25;;;3.88;;
27491;SDS011;14927;51.210;6.838;2022-10-31T17:20:57;10.32;;;4.35;;
27491;SDS011;14927;51.210;6.838;2022-10-31T17:23:44;15.15;;;4.88;;
27491;SDS011;14927;51.210;6.838;2022-10-31T17:26:29;8.60;;;3.83;;
27491;SDS011;14927;51.210;6.838;2022-10-31T17:29:13;13.52;;;3.92;;
27491;SDS011;14927;51.210;6.838;2022-10-31T17:31:58;7.38;;;3.63;;
27491;SDS011;14927;51.210;6.838;2022-10-31T17:34:43;11.35;;;3.22;;
27491;SDS011;14927;51.210;6.838;2022-10-31T17:37:28;16.02;;;3.53;;
27491;SDS011;14927;51.210;6.838;2022-10-31T17:40:14;9.13;;;3.05;;
27491;SDS011;14927;51.210;6.838;2022-10-31T17:43:03;8.10;;;3.40;;
27491;SDS011;14927;51.210;6.838;2022-10-31T17:45:48;10.98;;;3.47;;
27491;SDS011;14927;51.210;6.838;2022-10-31T17:48:33;10.95;;;4.00;;
27491;SDS011;14927;51.210;6.838;2022-10-31T17:51:19;12.45;;;4.15;;
27491;SDS011;14927;51.210;6.838;2022-10-31T17:54:04;10.15;;;3.92;;
27491;SDS011;14927;51.210;6.838;2022-10-31T17:56:53;10.02;;;3.50;;
27491;SDS011;14927;51.210;6.838;2022-10-31T17:59:37;11.10;;;3.97;;
27491;SDS011;14927;51.210;6.838;2022-10-31T18:02:22;6.47;;;3.40;;
27491;SDS011;14927;51.210;6.838;2022-10-31T18:05:07;10.10;;;3.35;;
27491;SDS011;14927;51.210;6.838;2022-10-31T18:07:52;10.05;;;3.63;;
27491;SDS011;14927;51.210;6.838;2022-10-31T18:10:37;13.50;;;3.58;;
27491;SDS011;14927;51.210;6.838;2022-10-31T18:13:21;9.13;;;3.45;;
27491;SDS011;14927;51.210;6.838;2022-10-31T18:16:15;8.20;;;3.53;;
27491;SDS011;14927;51.210;6.838;2022-10-31T18:19:02;11.98;;;3.60;;
27491;SDS011;14927;51.210;6.838;2022-10-31T18:21:48;10.50;;;3.45;;
27491;SDS011;14927;51.210;6.838;2022-10-31T18:24:33;12.45;;;3.95;;
27491;SDS011;14927;51.210;6.838;2022-10-31T18:27:17;8.90;;;4.43;;
27491;SDS011;14927;51.210;6.838;2022-10-31T18:30:02;16.65;;;4.32;;
27491;SDS011;14927;51.210;6.838;2022-10-31T18:32:48;17.10;;;4.50;;
27491;SDS011;14927;51.210;6.838;2022-10-31T18:35:34;15.18;;;4.68;;
27491;SDS011;14927;51.210;6.838;2022-10-31T18:38:21;11.60;;;4.65;;
27491;SDS011;14927;51.210;6.838;2022-10-31T18:41:06;7.93;;;3.97;;
27491;SDS011;14927;51.210;6.838;2022-10-31T18:43:56;12.13;;;4.63;;
27491;SDS011;14927;51.210;6.838;2022-10-31T18:46:42;12.02;;;4.80;;
27491;SDS011;14927;51.210;6.838;2022-10-31T18:49:28;12.77;;;5.15;;
27491;SDS011;14927;51.210;6.838;2022-10-31T18:52:15;13.25;;;4.78;;
27491;SDS011;14927;51.210;6.838;2022-10-31T18:54:59;18.58;;;4.30;;
27491;SDS011;14927;51.210;6.838;2022-10-31T18:57:44;9.88;;;3.72;;
27491;SDS011;14927;51.210;6.838;2022-10-31T19:00:29;11.40;;;4.47;;
27491;SDS011;14927;51.210;6.838;2022-10-31T19:03:13;11.52;;;4.70;;
27491;SDS011;14927;51.210;6.838;2022-10-31T19:05:58;10.55;;;4.38;;
27491;SDS011;14927;51.210;6.838;2022-10-31T19:08:43;14.90;;;4.53;;
27491;SDS011;14927;51.210;6.838;2022-10-31T19:11:30;10.82;;;4.22;;